Corbins Corner, Connecticut
Current Conditions -  °F | °C
As of 2:53 AM on Friday 31 Oct 2014 (Local Time) from KHFD Reporting Station
Few Clouds Few Clouds  
Wind Chill: -1°   Ceiling: Unl
Heat Index:   Visibility: 7mi
Dew Point:   Wind: 8mph
Humidity: 93%   Direction: 150°SSE
Pressure: 30.03"   Gusts: NA
Location:  41.7325°N, 72.7334°W
Report Text: KHFD 310653Z 15007KT 7SM FEW060 03/02 A3003 RMK AO2 SLP167 T00280017
Loading
Personal Weather Stations






























Interactive Weather Map
Tropical Storm Tracking
New forecast layout! Learn more

10-Day Weather Forecast

Advertisements
Track Severe Weather on mobile